Haddonfield, New Jersey
Current Conditions -  °F | °C
As of 7:54 AM on Sunday 23 Nov 2014 (Local Time) from KVAY Reporting Station
Scattered Clouds Scattered Clouds  
Wind Chill: 41°   Ceiling: Unl
Heat Index: 41°   Visibility: 10mi
Dew Point: 24°   Wind: 0mph
Humidity: 51%   Direction: NA
Pressure: 30.24"   Gusts: NA
Location:  39.9°N, 75.03°W
Report Text: KVAY 231254Z AUTO 00000KT 10SM SCT095 05/M04 A3024 RMK AO2 SLP240 T00501044
Loading
Personal Weather Stations






























Interactive Weather Map New forecast layout! Learn more

10-Day Weather Forecast

Advertisements
Track Severe Weather on mobile